Time;durP1;ratioP1;P1;durP2;ratioP2;P2;SDS_P1;SDS_P2;PMS_P1;PMS_P2;Temp;Humidity;BMP_temperature;BMP_pressure;BME280_temperature;BME280_humidity;BME280_pressure;Samples;Min_cycle;Max_cycle;Signal;HPM_P1;HPM_P2
2020/12/10 00:00:40;;;;;;;17.15;11.80;;;;;;;6.25;79.05;93898.34;4186696;28;20056;-76
2020/12/10 00:02:42;;;;;;;15.80;10.80;;;;;;;6.24;79.11;93898.50;4210708;28;20208;-77
2020/12/10 00:04:43;;;;;;;15.70;10.98;;;;;;;6.26;79.02;93900.00;4194918;28;20131;-77
2020/12/10 00:06:45;;;;;;;15.55;11.20;;;;;;;6.22;79.00;93910.84;4189984;28;20048;-78
2020/12/10 00:08:46;;;;;;;15.98;11.55;;;;;;;6.23;78.92;93902.06;4198383;28;20166;-76
2020/12/10 00:10:47;;;;;;;16.95;11.50;;;;;;;6.25;79.12;93908.75;4160807;28;20104;-78
2020/12/10 00:12:49;;;;;;;16.95;11.45;;;;;;;6.29;78.76;93899.69;4193912;28;20063;-77
2020/12/10 00:14:53;;;;;;;15.80;11.27;;;;;;;6.28;78.55;93890.25;4195428;28;20476;-76
2020/12/10 00:16:57;;;;;;;11.82;9.30;;;;;;;6.29;78.62;93889.28;4194678;28;20050;-78
2020/12/10 00:18:59;;;;;;;12.98;9.88;;;;;;;6.32;78.21;93873.38;4184738;28;20098;-77
2020/12/10 00:21:00;;;;;;;15.77;9.90;;;;;;;6.17;78.63;93869.69;4194742;28;20048;-78
2020/12/10 00:23:02;;;;;;;14.07;9.80;;;;;;;6.14;79.16;93883.81;4195530;28;20211;-79
2020/12/10 00:25:05;;;;;;;13.82;9.95;;;;;;;6.18;79.09;93876.53;4195881;28;20040;-77
2020/12/10 00:27:06;;;;;;;14.73;9.90;;;;;;;6.21;78.64;93878.81;4175932;28;20397;-77
2020/12/10 00:29:08;;;;;;;13.63;9.77;;;;;;;6.27;78.84;93861.78;4193948;28;20232;-79
2020/12/10 00:31:09;;;;;;;12.38;8.88;;;;;;;6.11;79.14;93860.72;4194711;28;20048;-78
2020/12/10 00:33:10;;;;;;;12.65;9.10;;;;;;;6.12;79.30;93884.94;4195406;28;20048;-77
2020/12/10 00:35:12;;;;;;;11.65;8.52;;;;;;;6.10;79.51;93879.06;4193951;28;20044;-78
2020/12/10 00:37:13;;;;;;;11.27;8.80;;;;;;;6.14;79.39;93873.41;4176889;28;20514;-77
2020/12/10 00:39:15;;;;;;;11.85;8.35;;;;;;;6.21;78.81;93871.00;4193996;28;20471;-78
2020/12/10 00:41:16;;;;;;;11.88;8.82;;;;;;;6.28;78.99;93879.00;4197110;28;20487;-78
2020/12/10 00:43:17;;;;;;;11.35;8.25;;;;;;;6.32;78.76;93890.75;4194655;28;20063;-77
2020/12/10 00:45:19;;;;;;;11.65;8.38;;;;;;;6.22;79.23;93890.06;4193675;28;20123;-77
2020/12/10 00:47:20;;;;;;;12.38;8.95;;;;;;;6.21;79.56;93901.41;4189998;28;20067;-77
2020/12/10 00:49:22;;;;;;;13.23;9.50;;;;;;;6.19;79.48;93890.34;4148226;28;20548;-77
2020/12/10 00:51:23;;;;;;;15.45;11.82;;;;;;;5.93;80.35;93881.50;4184013;28;20056;-77
2020/12/10 00:53:25;;;;;;;15.75;10.60;;;;;;;5.75;81.06;93881.53;4182300;28;20048;-67
2020/12/10 00:55:26;;;;;;;14.10;11.57;;;;;;;5.48;81.99;93886.81;4193127;28;20447;-70
2020/12/10 00:57:27;;;;;;;15.77;10.93;;;;;;;5.43;82.82;93884.66;4195129;28;20246;-69
2020/12/10 00:59:29;;;;;;;15.57;12.00;;;;;;;5.54;82.08;93889.63;4173067;28;20041;-69
2020/12/10 01:01:30;;;;;;;15.02;11.98;;;;;;;5.64;82.37;93884.38;4199663;28;20052;-70
2020/12/10 01:03:32;;;;;;;16.75;11.98;;;;;;;5.76;81.99;93871.94;4186807;28;20086;-68
2020/12/10 01:05:33;;;;;;;17.05;12.10;;;;;;;5.88;81.27;93860.34;4175282;28;20053;-69
2020/12/10 01:07:34;;;;;;;19.95;14.20;;;;;;;5.61;81.65;93866.47;4192432;28;20054;-69
2020/12/10 01:09:35;;;;;;;17.23;13.30;;;;;;;5.70;82.14;93878.56;4181886;28;20059;-68
2020/12/10 01:11:37;;;;;;;17.55;13.27;;;;;;;5.81;81.93;93864.53;4195473;28;20063;-69
2020/12/10 01:13:38;;;;;;;18.05;13.40;;;;;;;5.80;81.50;93864.69;4175436;28;20471;-70
2020/12/10 01:15:39;;;;;;;19.15;12.85;;;;;;;5.90;81.61;93870.63;4190235;28;20821;-68
2020/12/10 01:17:41;;;;;;;16.15;13.02;;;;;;;5.98;80.68;93868.09;4187969;28;20058;-69
2020/12/10 01:19:43;;;;;;;17.15;12.70;;;;;;;6.07;80.30;93853.38;4192785;28;20090;-68
2020/12/10 01:21:48;;;;;;;15.32;11.88;;;;;;;6.10;80.39;93861.66;4193599;28;20106;-70
2020/12/10 01:23:49;;;;;;;17.50;12.18;;;;;;;6.17;79.92;93854.06;4192396;28;20411;-69
2020/12/10 01:25:51;;;;;;;16.35;12.63;;;;;;;6.12;80.30;93864.13;4193205;28;20048;-70
2020/12/10 01:27:53;;;;;;;17.00;13.20;;;;;;;6.15;80.48;93856.84;4186266;28;20064;-70
2020/12/10 01:29:54;;;;;;;17.02;12.68;;;;;;;6.20;80.08;93850.38;4173035;28;20502;-68
2020/12/10 01:31:55;;;;;;;19.00;12.95;;;;;;;6.18;79.89;93834.91;4206307;28;20060;-69
2020/12/10 01:33:57;;;;;;;19.25;12.93;;;;;;;6.02;80.73;93843.41;4205745;28;20085;-68
2020/12/10 01:35:58;;;;;;;20.10;14.10;;;;;;;5.84;81.29;93843.44;4193605;28;20562;-69
2020/12/10 01:38:00;;;;;;;17.60;13.27;;;;;;;5.89;81.53;93849.00;4201752;28;20040;-69
2020/12/10 01:40:03;;;;;;;18.75;13.40;;;;;;;5.98;81.25;93857.72;4166390;28;20411;-69
2020/12/10 01:42:04;;;;;;;17.95;12.45;;;;;;;6.06;80.71;93852.53;4192156;28;20051;-71
2020/12/10 01:44:11;;;;;;;19.65;12.65;;;;;;;6.15;80.13;93840.41;4193422;28;20469;-69
2020/12/10 01:46:12;;;;;;;19.48;13.13;;;;;;;6.23;80.29;93839.66;4196353;28;20127;-69
2020/12/10 01:48:13;;;;;;;21.50;14.25;;;;;;;6.24;79.82;93849.06;4190246;28;20210;-68
2020/12/10 01:50:15;;;;;;;18.42;13.57;;;;;;;6.25;79.18;93838.53;4181006;28;20048;-69
2020/12/10 01:52:16;;;;;;;19.65;12.75;;;;;;;6.27;79.56;93826.19;4191969;28;20150;-66
2020/12/10 01:54:17;;;;;;;19.35;13.38;;;;;;;6.30;79.40;93819.84;4202494;28;20054;-68
2020/12/10 01:56:18;;;;;;;18.65;13.63;;;;;;;6.12;80.42;93827.72;4174869;28;20496;-70
2020/12/10 01:58:20;;;;;;;19.13;12.43;;;;;;;6.14;80.41;93831.78;4173586;28;20049;-70
2020/12/10 02:00:21;;;;;;;18.30;12.63;;;;;;;6.22;80.21;93823.25;4195123;28;20063;-71
2020/12/10 02:02:23;;;;;;;20.02;12.82;;;;;;;6.29;79.77;93833.84;4198779;28;20052;-69
2020/12/10 02:04:30;;;;;;;18.77;13.25;;;;;;;6.28;79.82;93858.19;4193149;28;20051;-68
2020/12/10 02:06:31;;;;;;;18.80;13.50;;;;;;;6.21;79.69;93849.41;4165850;28;20149;-69
2020/12/10 02:08:33;;;;;;;20.55;15.13;;;;;;;5.98;79.93;93836.91;4190142;28;20101;-69
2020/12/10 02:10:35;;;;;;;18.98;14.25;;;;;;;5.82;81.22;93847.16;4174888;28;20515;-69
2020/12/10 02:12:39;;;;;;;18.73;13.57;;;;;;;5.88;81.31;93842.16;4186039;28;20086;-70
2020/12/10 02:14:40;;;;;;;19.17;13.32;;;;;;;5.97;81.17;93837.88;4187920;28;20092;-67
2020/12/10 02:16:41;;;;;;;19.65;13.52;;;;;;;6.04;80.24;93846.69;4194943;28;20457;-70
2020/12/10 02:18:43;;;;;;;20.02;14.15;;;;;;;6.11;80.17;93842.53;4176818;28;20053;-69
2020/12/10 02:20:44;;;;;;;19.88;14.32;;;;;;;6.12;79.82;93843.31;4192850;28;20453;-68
2020/12/10 02:22:50;;;;;;;18.40;13.38;;;;;;;6.12;79.50;93831.13;4177218;28;20481;-68
2020/12/10 02:24:51;;;;;;;19.55;14.55;;;;;;;6.00;80.25;93828.94;4193013;28;20105;-68
2020/12/10 02:26:53;;;;;;;18.38;14.15;;;;;;;6.00;80.48;93828.94;4190561;28;20063;-69
2020/12/10 02:28:59;;;;;;;18.67;13.85;;;;;;;6.04;79.90;93815.47;4192935;28;20431;-68
2020/12/10 02:31:00;;;;;;;20.48;14.30;;;;;;;6.06;80.27;93797.94;4160769;28;20520;-68
2020/12/10 02:33:04;;;;;;;20.00;14.10;;;;;;;6.05;80.70;93811.13;4184764;28;20502;-69
2020/12/10 02:35:05;;;;;;;;;;;;;;;5.97;80.53;93798.88;4171531;28;20483;-69
2020/12/10 02:37:06;;;;;;;19.40;13.88;;;;;;;6.00;80.76;93808.97;4189031;28;19959;-69
2020/12/10 02:39:08;;;;;;;18.58;14.02;;;;;;;5.99;79.92;93815.13;4191463;28;20051;-69
2020/12/10 02:41:13;;;;;;;18.52;13.20;;;;;;;6.02;79.68;93827.00;4174439;28;20041;-68
2020/12/10 02:43:15;;;;;;;20.13;14.32;;;;;;;6.06;80.44;93821.34;4172953;28;20063;-68
2020/12/10 02:45:18;;;;;;;18.27;13.35;;;;;;;6.11;80.27;93810.50;4165499;28;20532;-68
2020/12/10 02:47:19;;;;;;;18.50;13.98;;;;;;;6.15;80.19;93811.81;4173970;28;20049;-70
2020/12/10 02:49:20;;;;;;;18.67;13.27;;;;;;;6.13;80.06;93808.53;4183976;28;20488;-70
2020/12/10 02:51:22;;;;;;;19.02;13.15;;;;;;;6.20;79.63;93800.97;4190205;28;20052;-70
2020/12/10 02:53:23;;;;;;;17.45;12.85;;;;;;;6.27;79.62;93797.56;4174643;28;20116;-69
2020/12/10 02:55:24;;;;;;;18.33;13.40;;;;;;;6.27;79.24;93788.97;4173243;28;20069;-71
2020/12/10 02:57:25;;;;;;;22.17;14.25;;;;;;;6.13;79.61;93788.56;4156693;28;20050;-68
2020/12/10 02:59:27;;;;;;;20.80;14.43;;;;;;;6.05;80.39;93780.72;4172863;28;20053;-69
2020/12/10 03:01:28;;;;;;;17.65;13.00;;;;;;;6.09;80.27;93782.03;4191757;28;20048;-69
2020/12/10 03:03:31;;;;;;;20.48;14.18;;;;;;;5.84;80.89;93788.03;4173670;28;20044;-71
2020/12/10 03:05:32;;;;;;;18.08;14.23;;;;;;;5.75;81.03;93800.97;4191293;28;20551;-69
2020/12/10 03:07:34;;;;;;;19.98;14.35;;;;;;;5.85;81.00;93805.25;4188694;28;20052;-70
2020/12/10 03:09:36;;;;;;;18.05;12.68;;;;;;;5.97;80.64;93811.88;4156998;28;20053;-69
2020/12/10 03:11:37;;;;;;;18.30;13.75;;;;;;;6.05;80.85;93824.94;4186377;28;20052;-69
2020/12/10 03:13:39;;;;;;;16.15;13.07;;;;;;;6.07;80.30;93820.38;4204798;28;20045;-68
2020/12/10 03:15:40;;;;;;;18.88;13.30;;;;;;;5.89;81.09;93790.97;4191761;28;20063;-69
2020/12/10 03:17:42;;;;;;;20.95;14.98;;;;;;;5.78;81.93;93776.44;4198350;28;20051;-68
2020/12/10 03:19:43;;;;;;;17.45;14.23;;;;;;;5.67;82.39;93785.31;4208314;28;20063;-68
2020/12/10 03:21:44;;;;;;;18.13;14.25;;;;;;;5.72;82.14;93798.69;4177774;28;20155;-69
2020/12/10 03:23:46;;;;;;;19.85;14.82;;;;;;;5.67;82.72;93805.28;4190903;28;20048;-69
2020/12/10 03:25:47;;;;;;;20.48;15.15;;;;;;;5.79;81.62;93798.09;4191056;28;20044;-68
2020/12/10 03:27:48;;;;;;;18.88;15.20;;;;;;;5.90;81.79;93785.63;4189903;28;20499;-67
2020/12/10 03:29:49;;;;;;;21.15;15.57;;;;;;;5.91;81.85;93787.25;4191789;28;20056;-69
2020/12/10 03:31:51;;;;;;;20.85;15.55;;;;;;;5.78;82.42;93783.44;4190846;28;20048;-69
2020/12/10 03:33:52;;;;;;;21.80;15.93;;;;;;;5.37;83.93;93781.34;4191843;28;20076;-69
2020/12/10 03:35:53;;;;;;;21.85;16.05;;;;;;;5.44;83.50;93791.94;4190687;28;20040;-68
2020/12/10 03:37:55;;;;;;;20.35;16.42;;;;;;;5.57;82.98;93786.38;4190460;28;20062;-69
2020/12/10 03:39:56;;;;;;;22.60;17.63;;;;;;;5.39;83.62;93770.81;4192045;28;20052;-69
2020/12/10 03:41:59;;;;;;;23.00;16.92;;;;;;;5.52;83.78;93784.22;4184003;28;20053;-69
2020/12/10 03:44:00;;;;;;;21.00;16.20;;;;;;;5.67;83.54;93790.50;4173127;28;20409;-71
2020/12/10 03:46:01;;;;;;;23.13;17.83;;;;;;;5.74;83.74;93780.31;4192262;28;20156;-70
2020/12/10 03:48:03;;;;;;;21.85;17.10;;;;;;;5.77;83.04;93769.63;4173649;28;20049;-68
2020/12/10 03:50:04;;;;;;;23.98;18.00;;;;;;;5.80;83.48;93784.09;4188472;28;20410;-69
2020/12/10 03:52:06;;;;;;;22.80;17.88;;;;;;;5.88;83.06;93790.16;4173655;28;20217;-69
2020/12/10 03:54:07;;;;;;;22.83;18.33;;;;;;;6.00;82.94;93792.53;4190718;28;20049;-69
2020/12/10 03:56:08;;;;;;;24.10;17.08;;;;;;;6.09;82.30;93792.44;4191739;28;20124;-68
2020/12/10 03:58:09;;;;;;;23.55;17.98;;;;;;;6.18;81.94;93789.91;4171151;28;20531;-69
2020/12/10 04:00:11;;;;;;;20.38;16.85;;;;;;;6.26;81.42;93808.13;4193049;28;20052;-70
2020/12/10 04:02:12;;;;;;;20.92;16.85;;;;;;;6.32;81.25;93808.34;4194021;28;20154;-68
2020/12/10 04:04:13;;;;;;;23.50;17.30;;;;;;;6.35;81.06;93794.22;4176350;28;20050;-69
2020/12/10 04:06:14;;;;;;;21.33;16.45;;;;;;;6.33;80.94;93806.56;4191815;28;20066;-67
2020/12/10 04:08:16;;;;;;;20.05;16.17;;;;;;;6.33;80.86;93793.56;4190397;28;20049;-68
2020/12/10 04:10:17;;;;;;;21.95;17.10;;;;;;;6.22;81.31;93786.03;4190308;28;20117;-69
2020/12/10 04:12:18;;;;;;;22.02;16.52;;;;;;;5.96;82.85;93786.84;4171935;28;20100;-69
2020/12/10 04:14:19;;;;;;;23.75;18.40;;;;;;;5.80;84.11;93797.09;4190116;28;20068;-69
2020/12/10 04:16:21;;;;;;;23.52;18.63;;;;;;;5.83;83.99;93804.56;4173600;28;20053;-69
2020/12/10 04:18:22;;;;;;;22.27;17.52;;;;;;;5.94;83.30;93810.41;4191050;28;20052;-70
2020/12/10 04:20:24;;;;;;;23.60;17.88;;;;;;;6.06;83.14;93813.53;4191020;28;20063;-68
2020/12/10 04:22:25;;;;;;;23.63;18.48;;;;;;;6.14;82.46;93818.78;4192257;28;20492;-69
2020/12/10 04:24:27;;;;;;;22.25;17.75;;;;;;;6.18;82.98;93810.69;4192879;28;20379;-69
2020/12/10 04:26:28;;;;;;;23.90;18.55;;;;;;;6.12;83.03;93817.31;4184128;28;20049;-68
2020/12/10 04:28:29;;;;;;;26.02;19.90;;;;;;;5.98;84.15;93810.06;4193349;28;20054;-68
2020/12/10 04:30:31;;;;;;;24.88;19.67;;;;;;;6.04;83.79;93812.88;4194364;28;20102;-68
2020/12/10 04:32:32;;;;;;;28.38;21.05;;;;;;;6.11;83.14;93816.50;4195217;28;20507;-68
2020/12/10 04:34:33;;;;;;;25.90;18.75;;;;;;;6.20;82.81;93816.56;4201856;28;20070;-68
2020/12/10 04:36:34;;;;;;;23.88;17.58;;;;;;;6.22;82.33;93799.03;4175680;28;20072;-69
2020/12/10 04:38:36;;;;;;;21.80;16.95;;;;;;;6.29;81.87;93798.22;4193829;28;20060;-67
2020/12/10 04:40:38;;;;;;;20.95;17.23;;;;;;;6.35;81.82;93815.03;4197683;28;20044;-69
2020/12/10 04:42:41;;;;;;;25.67;19.25;;;;;;;6.38;82.08;93822.50;4197428;28;20545;-69
2020/12/10 04:44:45;;;;;;;26.02;18.75;;;;;;;6.43;81.52;93820.28;4184495;28;20200;-69
2020/12/10 04:46:47;;;;;;;45.47;30.92;;;;;;;6.45;81.47;93817.50;4194365;28;20071;-68
2020/12/10 04:48:48;;;;;;;33.92;26.25;;;;;;;6.51;81.33;93815.06;4191769;28;20385;-78
2020/12/10 04:50:51;;;;;;;24.27;18.58;;;;;;;6.51;81.24;93807.28;4172207;28;20083;-76
2020/12/10 04:52:53;;;;;;;24.58;18.40;;;;;;;6.44;81.32;93800.25;4175596;28;20427;-78
2020/12/10 04:54:55;;;;;;;23.58;18.88;;;;;;;6.33;82.08;93809.16;4167705;28;20057;-77
2020/12/10 04:56:56;;;;;;;24.60;18.02;;;;;;;6.28;82.39;93811.38;4174376;28;20061;-77
2020/12/10 04:58:58;;;;;;;20.48;17.40;;;;;;;6.33;82.40;93804.75;4166791;28;20166;-78
2020/12/10 05:01:01;;;;;;;23.27;17.65;;;;;;;6.32;82.57;93791.91;4188582;28;20048;-78
2020/12/10 05:03:02;;;;;;;23.67;17.50;;;;;;;6.36;81.91;93796.63;4181879;28;20486;-77
2020/12/10 05:05:25;;;;;;;21.77;17.33;;;;;;;6.44;82.05;93805.47;4199302;28;20415;-79
2020/12/10 05:07:39;;;;;;;25.20;17.92;;;;;;;6.47;81.86;93803.34;4190360;28;20139;-76
2020/12/10 05:09:55;;;;;;;22.97;17.10;;;;;;;6.52;81.82;93802.91;4193975;28;20071;-76
2020/12/10 05:11:56;;;;;;;23.95;18.85;;;;;;;6.56;81.29;93799.84;4170558;28;20286;-76
2020/12/10 05:13:57;;;;;;;28.02;19.35;;;;;;;6.63;81.14;93805.22;4201485;28;20048;-78
2020/12/10 05:15:59;;;;;;;23.52;17.88;;;;;;;6.67;81.34;93806.53;4180814;28;20306;-77
2020/12/10 05:18:04;;;;;;;37.80;26.52;;;;;;;6.70;81.50;93805.41;4197810;28;20044;-78
2020/12/10 05:20:06;;;;;;;33.47;24.60;;;;;;;6.72;80.99;93819.06;4189543;28;20068;-78
2020/12/10 05:22:09;;;;;;;22.67;18.17;;;;;;;6.74;80.98;93812.75;4193786;28;20051;-78
2020/12/10 05:24:20;;;;;;;24.33;19.17;;;;;;;6.50;81.63;93799.66;4192755;28;20053;-77
2020/12/10 05:26:22;;;;;;;25.00;19.35;;;;;;;6.50;81.90;93812.66;4192797;28;20102;-79
2020/12/10 05:28:25;;;;;;;23.35;17.42;;;;;;;6.56;81.99;93822.44;4192384;28;20439;-78
2020/12/10 05:30:26;;;;;;;24.75;18.42;;;;;;;6.64;81.67;93817.25;4175151;28;20049;-78
2020/12/10 05:32:37;;;;;;;23.02;18.45;;;;;;;6.64;82.23;93803.44;4194331;28;20044;-78
2020/12/10 05:34:38;;;;;;;24.75;18.23;;;;;;;6.51;82.20;93806.47;4192241;28;20383;-78
2020/12/10 05:36:44;;;;;;;26.63;20.48;;;;;;;6.49;82.20;93803.19;4193520;28;20423;-79
2020/12/10 05:38:52;;;;;;;26.08;18.95;;;;;;;6.42;82.68;93794.41;4159019;28;20057;-78
2020/12/10 05:40:53;;;;;;;25.80;19.58;;;;;;;6.46;82.79;93814.75;4193109;28;20048;-77
2020/12/10 05:42:54;;;;;;;26.08;20.73;;;;;;;6.50;82.06;93823.88;4191147;28;20423;-78
2020/12/10 05:44:56;;;;;;;23.77;18.45;;;;;;;6.51;82.24;93803.88;4193478;28;20053;-77
2020/12/10 05:47:05;;;;;;;23.83;18.40;;;;;;;6.51;82.53;93809.06;4187933;28;20046;-77
2020/12/10 05:49:07;;;;;;;25.63;18.80;;;;;;;6.40;83.16;93835.38;4181864;28;20050;-77
2020/12/10 05:51:14;;;;;;;24.65;19.60;;;;;;;6.39;82.82;93837.16;4170195;28;20609;-77
2020/12/10 05:53:19;;;;;;;26.50;20.58;;;;;;;6.33;82.66;93827.38;4202224;28;20509;-76
2020/12/10 05:55:21;;;;;;;25.85;19.08;;;;;;;6.12;84.31;93818.13;4165190;28;20098;-77
2020/12/10 05:57:22;;;;;;;25.65;19.27;;;;;;;6.24;83.78;93828.25;4191829;28;20048;-79
2020/12/10 05:59:25;;;;;;;27.80;19.35;;;;;;;6.34;83.27;93847.19;4201022;28;20237;-69
2020/12/10 06:01:33;;;;;;;25.27;18.25;;;;;;;6.46;82.68;93838.16;4192061;28;20056;-69
2020/12/10 06:03:35;;;;;;;25.50;18.60;;;;;;;6.56;82.34;93835.47;4173030;28;20104;-79
2020/12/10 06:05:38;;;;;;;23.05;18.40;;;;;;;6.63;81.93;93831.25;4201560;28;20052;-78
2020/12/10 06:07:39;;;;;;;25.70;20.15;;;;;;;6.65;82.07;93850.13;4183557;28;20421;-78
2020/12/10 06:09:41;;;;;;;22.27;16.65;;;;;;;6.70;81.50;93847.06;4191713;28;20397;-77
2020/12/10 06:11:43;;;;;;;27.42;18.88;;;;;;;6.76;81.77;93846.44;4164682;28;20064;-78
2020/12/10 06:13:46;;;;;;;24.23;18.17;;;;;;;6.79;81.22;93838.28;4173499;28;20474;-78
2020/12/10 06:15:48;;;;;;;25.90;18.13;;;;;;;6.83;81.34;93842.22;4174902;28;20048;-78
2020/12/10 06:18:02;;;;;;;23.25;17.73;;;;;;;6.86;80.83;93841.91;4173438;28;20076;-77
2020/12/10 06:20:04;;;;;;;25.85;17.83;;;;;;;6.90;80.60;93832.78;4198875;28;20371;-77
2020/12/10 06:22:34;;;;;;;24.88;18.10;;;;;;;6.95;80.54;93845.38;4177157;28;20106;-69
2020/12/10 06:24:36;;;;;;;24.73;17.45;;;;;;;6.98;80.57;93840.63;4182824;28;20056;-70
2020/12/10 06:26:37;;;;;;;22.73;17.60;;;;;;;7.03;80.32;93847.16;4190445;28;20064;-69
2020/12/10 06:28:38;;;;;;;20.52;16.10;;;;;;;7.08;80.45;93852.72;4198316;28;20072;-68
2020/12/10 06:30:40;;;;;;;22.48;17.20;;;;;;;7.10;80.03;93850.78;4201635;28;20392;-68
2020/12/10 06:32:42;;;;;;;25.58;18.23;;;;;;;6.98;80.57;93845.03;4183936;28;20388;-69
2020/12/10 06:34:53;;;;;;;31.60;23.02;;;;;;;6.91;81.32;93842.25;4182685;28;20147;-69
2020/12/10 06:37:27;;;;;;;31.70;22.35;;;;;;;6.93;81.32;93845.50;4193310;28;20087;-69
2020/12/10 06:39:38;;;;;;;25.83;20.63;;;;;;;6.98;80.95;93847.63;4196457;28;20594;-69
2020/12/10 06:41:57;;;;;;;26.75;20.42;;;;;;;7.04;80.95;93846.19;4187688;28;20048;-70
2020/12/10 06:43:59;;;;;;;27.75;20.30;;;;;;;7.06;81.08;93850.28;4173610;28;20436;-69
2020/12/10 06:46:00;;;;;;;24.45;19.40;;;;;;;7.10;80.73;93858.59;4191385;28;20059;-70
2020/12/10 06:48:04;;;;;;;25.38;18.90;;;;;;;7.13;80.64;93873.91;4173348;28;20488;-69
2020/12/10 06:50:26;;;;;;;25.45;18.30;;;;;;;7.16;80.37;93870.97;4190156;28;20048;-69
2020/12/10 06:52:27;;;;;;;29.20;21.73;;;;;;;7.18;80.74;93866.41;4183118;28;20063;-67
2020/12/10 06:54:29;;;;;;;26.98;19.80;;;;;;;7.20;80.39;93858.44;4169563;28;20095;-68
2020/12/10 06:56:33;;;;;;;24.73;19.80;;;;;;;7.20;79.99;93854.03;4172277;28;20041;-70
2020/12/10 06:58:38;;;;;;;29.90;20.85;;;;;;;7.23;79.97;93852.91;4175476;28;20412;-69
2020/12/10 07:00:52;;;;;;;29.27;21.00;;;;;;;7.23;80.03;93848.53;4191188;28;20548;-70
2020/12/10 07:03:11;;;;;;;31.70;22.08;;;;;;;7.25;80.25;93849.19;4186892;28;20082;-71
2020/12/10 07:05:30;;;;;;;27.20;18.38;;;;;;;7.30;79.77;93857.34;4157562;28;20398;-69
2020/12/10 07:07:31;;;;;;;26.35;18.77;;;;;;;7.34;79.67;93861.25;4161449;28;20468;-70
2020/12/10 07:09:46;;;;;;;27.38;19.88;;;;;;;7.36;79.75;93850.69;4190761;28;20480;-69
2020/12/10 07:11:47;;;;;;;25.33;19.42;;;;;;;7.21;80.55;93847.06;4169522;28;20831;-72
2020/12/10 07:13:48;;;;;;;28.85;19.63;;;;;;;7.24;80.17;93857.16;4188286;28;20112;-70
2020/12/10 07:15:50;;;;;;;27.00;19.40;;;;;;;7.30;80.18;93869.53;4190509;28;20052;-69
2020/12/10 07:17:51;;;;;;;25.98;19.38;;;;;;;7.15;80.63;93856.31;4190751;28;20511;-69
2020/12/10 07:19:52;;;;;;;22.35;17.65;;;;;;;6.73;82.45;93831.09;4173434;28;20041;-70
2020/12/10 07:21:54;;;;;;;30.88;20.27;;;;;;;6.82;82.61;93851.00;4173557;28;20473;-69
2020/12/10 07:23:55;;;;;;;25.92;18.45;;;;;;;6.95;82.37;93871.41;4191340;28;20079;-69
2020/12/10 07:25:56;;;;;;;28.42;19.13;;;;;;;7.08;81.72;93882.19;4173674;28;20055;-70
2020/12/10 07:27:58;;;;;;;26.98;19.85;;;;;;;7.15;81.45;93887.56;4190202;28;20055;-69
2020/12/10 07:30:00;;;;;;;26.40;19.67;;;;;;;7.02;81.88;93875.00;4173237;28;20072;-69
2020/12/10 07:32:01;;;;;;;29.98;18.73;;;;;;;6.92;82.20;93872.50;4191735;28;20057;-68
2020/12/10 07:34:03;;;;;;;23.38;17.98;;;;;;;6.98;82.60;93871.06;4191479;28;20296;-70
2020/12/10 07:36:07;;;;;;;29.63;19.33;;;;;;;7.11;82.04;93868.84;4172913;28;20057;-70
2020/12/10 07:38:08;;;;;;;24.45;18.42;;;;;;;7.25;81.81;93871.78;4172281;28;20084;-68
2020/12/10 07:40:10;;;;;;;25.40;19.45;;;;;;;7.32;81.94;93863.19;4188549;28;20256;-79
2020/12/10 07:42:19;;;;;;;31.55;21.38;;;;;;;7.36;81.25;93877.53;4189751;28;20136;-78
2020/12/10 07:44:33;;;;;;;27.52;17.50;;;;;;;7.47;80.59;93886.84;4192305;28;20041;-79
2020/12/10 07:46:36;;;;;;;26.25;16.33;;;;;;;7.56;80.70;93862.41;4173372;28;20490;-79
2020/12/10 07:48:38;;;;;;;22.45;17.17;;;;;;;7.65;80.15;93858.03;4185043;28;20394;-78
2020/12/10 07:50:44;;;;;;;21.77;17.20;;;;;;;7.58;79.95;93859.66;4181973;28;20041;-80
2020/12/10 07:52:47;;;;;;;25.67;17.50;;;;;;;7.42;81.08;93867.44;4186985;28;20044;-78
2020/12/10 07:54:50;;;;;;;30.15;19.75;;;;;;;7.43;81.33;93876.91;4173803;28;20242;-81
2020/12/10 07:56:52;;;;;;;25.60;18.98;;;;;;;7.52;80.69;93881.16;4170842;28;20053;-81
2020/12/10 07:59:10;;;;;;;25.70;18.58;;;;;;;7.60;80.50;93875.94;4183507;28;20053;-80
2020/12/10 08:01:12;;;;;;;33.60;22.02;;;;;;;7.63;80.41;93870.41;4187440;28;20137;-79
2020/12/10 08:03:22;;;;;;;25.67;19.25;;;;;;;7.64;80.47;93887.69;4168917;28;20057;-81
2020/12/10 08:05:24;;;;;;;26.48;18.85;;;;;;;7.66;80.62;93895.34;4206169;28;20100;-77
2020/12/10 08:07:26;;;;;;;23.83;18.00;;;;;;;7.71;80.64;93885.25;4188677;28;20094;-80
2020/12/10 08:09:27;;;;;;;25.52;18.27;;;;;;;7.49;80.57;93866.66;4195335;28;20136;-81
2020/12/10 08:11:29;;;;;;;23.02;16.75;;;;;;;7.58;80.70;93880.50;4197087;28;20090;-77
2020/12/10 08:13:31;;;;;;;26.48;18.38;;;;;;;7.60;80.43;93891.59;4179539;28;20053;-79
2020/12/10 08:15:32;;;;;;;30.23;18.42;;;;;;;7.68;80.75;93882.94;4184802;28;20082;-79
2020/12/10 08:17:33;;;;;;;26.55;19.00;;;;;;;7.70;80.94;93886.22;4174687;28;20101;-83
2020/12/10 08:19:37;;;;;;;28.75;18.95;;;;;;;7.75;80.27;93897.81;4194897;28;20127;-79
2020/12/10 08:21:38;;;;;;;30.58;22.77;;;;;;;7.82;80.53;93884.13;4177161;28;20534;-78
2020/12/10 08:23:44;;;;;;;29.85;21.17;;;;;;;7.71;80.25;93860.00;4177392;28;20053;-78
2020/12/10 08:26:08;;;;;;;37.80;24.25;;;;;;;7.53;81.01;93867.16;4192321;28;20395;-80
2020/12/10 08:28:10;;;;;;;33.70;21.48;;;;;;;7.66;81.05;93864.88;4171602;28;20526;-79
2020/12/10 08:30:11;;;;;;;25.70;19.27;;;;;;;7.80;80.51;93861.63;4197587;28;20045;-80
2020/12/10 08:32:14;;;;;;;29.85;20.70;;;;;;;7.89;80.19;93857.22;4179302;28;20063;-79
2020/12/10 08:34:17;;;;;;;30.55;22.02;;;;;;;7.84;80.25;93854.28;4193732;28;20167;-81
2020/12/10 08:36:29;;;;;;;26.55;20.17;;;;;;;7.96;79.73;93870.44;4176768;28;20044;-79
2020/12/10 08:38:32;;;;;;;26.33;19.80;;;;;;;8.07;79.86;93874.53;4176260;28;20090;-81
2020/12/10 08:40:33;;;;;;;26.38;18.98;;;;;;;8.15;79.70;93871.88;4192437;28;20048;-80
2020/12/10 08:42:34;;;;;;;24.15;18.73;;;;;;;8.15;79.23;93864.06;4176384;28;20087;-82
2020/12/10 08:44:50;;;;;;;25.60;17.42;;;;;;;8.13;78.75;93876.44;4186135;28;20113;-80
2020/12/10 08:47:08;;;;;;;25.08;19.33;;;;;;;8.20;78.98;93877.44;4193030;28;20511;-81
2020/12/10 08:49:20;;;;;;;28.50;20.42;;;;;;;8.25;79.15;93858.69;4207006;28;20044;-78
2020/12/10 08:51:21;;;;;;;31.23;20.42;;;;;;;8.06;79.34;93846.78;4186724;28;20052;-80
2020/12/10 08:53:23;;;;;;;33.17;22.27;;;;;;;7.88;80.03;93841.75;4190654;28;20060;-79
2020/12/10 08:55:29;;;;;;;28.23;19.52;;;;;;;8.00;79.73;93840.41;4193323;28;20080;-78
2020/12/10 08:57:46;;;;;;;25.45;19.92;;;;;;;8.08;79.31;93843.03;4184780;28;20480;-79
2020/12/10 08:59:48;;;;;;;26.00;18.13;;;;;;;8.19;79.33;93837.50;4187389;28;20180;-78
2020/12/10 09:01:52;;;;;;;28.55;20.20;;;;;;;8.32;78.90;93833.53;4198393;28;20048;-81
2020/12/10 09:03:54;;;;;;;24.38;19.95;;;;;;;8.43;78.47;93835.81;4198549;28;20059;-79
2020/12/10 09:05:55;;;;;;;27.17;19.30;;;;;;;8.46;78.27;93835.50;4175439;28;20051;-70
2020/12/10 09:07:57;;;;;;;32.88;23.63;;;;;;;8.50;77.95;93841.22;4195687;28;20061;-69
2020/12/10 09:09:59;;;;;;;28.80;20.75;;;;;;;8.57;77.47;93837.75;4175268;28;20045;-71
2020/12/10 09:12:00;;;;;;;31.27;20.27;;;;;;;8.61;77.38;93830.41;4194293;28;20449;-71
2020/12/10 09:14:01;;;;;;;28.85;19.73;;;;;;;8.66;77.67;93833.31;4192778;28;20041;-81
2020/12/10 09:16:03;;;;;;;25.58;19.17;;;;;;;8.71;77.59;93822.34;4190707;28;20048;-78
2020/12/10 09:18:04;;;;;;;24.65;19.17;;;;;;;8.73;76.69;93823.00;4193199;28;20080;-69
2020/12/10 09:20:06;;;;;;;27.25;19.77;;;;;;;8.73;76.75;93820.41;4196051;28;20468;-69
2020/12/10 09:22:10;;;;;;;46.80;32.65;;;;;;;8.75;76.88;93818.44;4195562;28;20052;-79
2020/12/10 09:24:11;;;;;;;25.67;18.38;;;;;;;8.69;76.60;93809.50;4177821;28;20113;-79
2020/12/10 09:26:14;;;;;;;23.67;18.63;;;;;;;8.70;77.94;93799.84;4173386;28;20558;-78
2020/12/10 09:28:16;;;;;;;23.25;18.05;;;;;;;8.65;77.72;93807.38;4174782;28;20487;-78
2020/12/10 09:30:17;;;;;;;27.02;17.50;;;;;;;8.67;77.22;93816.69;4197443;28;20090;-81
2020/12/10 09:32:19;;;;;;;21.00;15.93;;;;;;;8.70;77.54;93818.94;4191076;28;20063;-81
2020/12/10 09:34:20;;;;;;;22.80;17.65;;;;;;;8.73;77.61;93823.84;4188793;28;20213;-80